createdAt,value
2022-10-11T00:00:00.576Z,6.75
2022-10-11T00:02:40.767Z,8.07
2022-10-11T00:05:22.072Z,4.90
2022-10-11T00:08:05.563Z,6.88
2022-10-11T00:10:46.652Z,4.70
2022-10-11T00:13:28.590Z,7.65
2022-10-11T00:16:14.253Z,6.53
2022-10-11T00:18:54.477Z,6.20
2022-10-11T00:21:36.756Z,9.65
2022-10-11T00:24:17.476Z,8.77
2022-10-11T00:26:58.989Z,4.85
2022-10-11T00:29:40.525Z,5.60
2022-10-11T00:32:22.046Z,5.47
2022-10-11T00:35:06.469Z,5.10
2022-10-11T00:37:46.656Z,6.60
2022-10-11T00:40:28.265Z,9.85
2022-10-11T00:43:16.733Z,6.90
2022-10-11T00:46:14.147Z,7.30
2022-10-11T00:48:57.749Z,6.32
2022-10-11T00:51:43.051Z,7.60
2022-10-11T00:54:26.015Z,6.25
2022-10-11T00:57:10.066Z,6.43
2022-10-11T00:59:52.620Z,4.95
2022-10-11T01:02:34.229Z,6.15
2022-10-11T01:05:29.337Z,9.27
2022-10-11T01:08:11.457Z,9.07
2022-10-11T01:10:53.316Z,6.53
2022-10-11T01:13:43.176Z,5.35
2022-10-11T01:16:25.501Z,8.55
2022-10-11T01:19:12.071Z,7.70
2022-10-11T01:21:54.924Z,6.85
2022-10-11T01:24:55.228Z,6.85
2022-10-11T01:27:42.260Z,5.20
2022-10-11T01:30:30.773Z,6.40
2022-10-11T01:33:26.482Z,5.88
2022-10-11T01:36:10.460Z,8.73
2022-10-11T01:38:55.265Z,5.63
2022-10-11T01:41:39.370Z,5.72
2022-10-11T01:44:20.418Z,7.85
2022-10-11T01:47:01.545Z,5.22
2022-10-11T01:49:43.041Z,5.40
2022-10-11T01:52:24.656Z,6.70
2022-10-11T01:55:17.931Z,8.63
2022-10-11T01:58:09.080Z,7.75
2022-10-11T02:00:51.704Z,5.80
2022-10-11T02:03:37.754Z,5.50
2022-10-11T02:06:23.198Z,6.40
2022-10-11T02:09:08.470Z,10.77
2022-10-11T02:11:48.831Z,6.65
2022-10-11T02:14:33.679Z,6.45
2022-10-11T02:17:16.553Z,7.10
2022-10-11T02:19:59.360Z,7.32
2022-10-11T02:22:42.797Z,6.57
2022-10-11T02:25:26.698Z,5.75
2022-10-11T02:28:09.401Z,5.22
2022-10-11T02:30:51.614Z,7.70
2022-10-11T02:33:33.701Z,7.18
2022-10-11T02:36:17.816Z,5.30
2022-10-11T02:39:01.794Z,6.38
2022-10-11T02:41:43.869Z,5.10
2022-10-11T02:44:31.814Z,5.30
2022-10-11T02:47:13.017Z,6.85
2022-10-11T02:49:54.421Z,4.55
2022-10-11T02:52:35.572Z,5.80
2022-10-11T02:55:17.240Z,3.80
2022-10-11T02:57:58.617Z,3.83
2022-10-11T03:00:40.133Z,4.18
2022-10-11T03:03:21.669Z,3.83
2022-10-11T03:06:04.281Z,3.17
2022-10-11T03:08:44.684Z,6.93
2022-10-11T03:11:24.945Z,6.30
2022-10-11T03:14:06.120Z,4.60
2022-10-11T03:16:47.688Z,4.95
2022-10-11T03:19:29.796Z,5.65
2022-10-11T03:22:10.697Z,4.65
2022-10-11T03:24:52.231Z,4.13
2022-10-11T03:27:33.946Z,3.47
2022-10-11T03:30:18.376Z,3.10
2022-10-11T03:33:00.005Z,3.10
2022-10-11T03:35:41.654Z,4.07
2022-10-11T03:38:24.228Z,4.93
2022-10-11T03:41:03.191Z,3.55
2022-10-11T03:43:44.544Z,4.03
2022-10-11T03:46:26.147Z,2.83
2022-10-11T03:49:07.997Z,4.43
2022-10-11T03:51:49.118Z,3.85
2022-10-11T03:54:30.634Z,5.70
2022-10-11T03:57:12.066Z,3.78
2022-10-11T03:59:53.587Z,5.47
2022-10-11T04:02:39.102Z,3.00
2022-10-11T04:05:19.952Z,5.07
2022-10-11T04:08:01.353Z,4.70
2022-10-11T04:10:43.148Z,4.18
2022-10-11T04:13:24.392Z,5.97
2022-10-11T04:16:06.627Z,5.10
2022-10-11T04:18:47.415Z,4.72
2022-10-11T04:21:28.997Z,3.15
2022-10-11T04:24:11.592Z,5.60
2022-10-11T04:26:51.952Z,4.32
2022-10-11T04:29:33.588Z,4.32
2022-10-11T04:32:15.035Z,4.15
2022-10-11T04:34:56.534Z,5.15
2022-10-11T04:37:38.071Z,5.18
2022-10-11T04:40:19.597Z,3.97
2022-10-11T04:43:01.083Z,3.78
2022-10-11T04:45:42.596Z,6.20
2022-10-11T04:48:24.136Z,4.05
2022-10-11T04:51:05.744Z,6.22
2022-10-11T04:53:47.154Z,4.25
2022-10-11T04:56:30.598Z,6.70
2022-10-11T04:59:11.874Z,4.80
2022-10-11T05:01:52.021Z,2.42
2022-10-11T05:04:33.333Z,4.32
2022-10-11T05:07:14.815Z,5.18
2022-10-11T05:09:56.398Z,5.47
2022-10-11T05:12:37.997Z,4.43
2022-10-11T05:15:19.541Z,3.17
2022-10-11T05:18:00.845Z,5.22
2022-10-11T05:20:42.398Z,2.75
2022-10-11T05:23:23.944Z,5.13
2022-10-11T05:26:05.927Z,3.53
2022-10-11T05:28:47.059Z,2.80
2022-10-11T05:31:28.601Z,5.50
2022-10-11T05:34:09.998Z,4.88
2022-10-11T05:36:51.479Z,2.90
2022-10-11T05:39:33.429Z,4.25
2022-10-11T05:42:14.599Z,3.20
2022-10-11T05:44:56.096Z,6.97
2022-10-11T05:47:37.601Z,3.25
2022-10-11T05:50:24.035Z,2.88
2022-10-11T05:53:06.007Z,5.75
2022-10-11T05:55:45.670Z,7.50
2022-10-11T05:58:27.109Z,4.72
2022-10-11T06:01:08.425Z,6.05
2022-10-11T06:03:49.958Z,4.05
2022-10-11T06:06:31.422Z,4.25
2022-10-11T06:09:13.239Z,4.28
2022-10-11T06:11:54.457Z,3.45
2022-10-11T06:14:49.855Z,5.32
2022-10-11T06:17:56.078Z,4.82
2022-10-11T06:20:36.289Z,6.13
2022-10-11T06:23:31.093Z,4.38
2022-10-11T06:26:28.282Z,6.10
2022-10-11T06:29:23.239Z,3.63
2022-10-11T06:32:20.365Z,6.93
2022-10-11T06:35:24.056Z,3.60
2022-10-11T06:38:19.040Z,5.85
2022-10-11T06:41:37.204Z,6.28
2022-10-11T06:44:44.046Z,4.00
2022-10-11T06:47:57.461Z,4.22
2022-10-11T06:50:59.996Z,5.10
2022-10-11T06:53:56.806Z,6.80
2022-10-11T06:56:54.700Z,5.50
2022-10-11T06:59:53.672Z,5.80
2022-10-11T07:02:53.388Z,6.60
2022-10-11T07:05:51.072Z,5.00
2022-10-11T07:08:45.848Z,4.82
2022-10-11T07:11:40.093Z,5.80
2022-10-11T07:14:34.409Z,7.07
2022-10-11T07:17:30.280Z,6.38
2022-10-11T07:20:28.336Z,5.82
2022-10-11T07:23:25.317Z,6.65
2022-10-11T07:26:19.961Z,7.50
2022-10-11T07:29:19.829Z,5.90
2022-10-11T07:32:16.432Z,5.22
2022-10-11T07:35:13.555Z,5.00
2022-10-11T07:38:14.100Z,5.35
2022-10-11T07:41:09.459Z,2.17
2022-10-11T07:44:08.625Z,7.75
2022-10-11T07:47:13.020Z,5.25
2022-10-11T07:50:20.090Z,5.47
2022-10-11T07:53:23.957Z,5.00
2022-10-11T07:56:28.944Z,4.82
2022-10-11T08:00:08.825Z,6.65
2022-10-11T08:03:12.564Z,1.90
2022-10-11T08:06:15.690Z,5.43
2022-10-11T08:09:28.156Z,4.30
2022-10-11T08:12:25.830Z,6.63
2022-10-11T08:15:25.417Z,3.95
2022-10-11T08:18:23.243Z,3.55
2022-10-11T08:21:27.781Z,7.13
2022-10-11T08:24:33.545Z,6.38
2022-10-11T08:27:32.186Z,4.35
2022-10-11T08:30:26.473Z,2.35
2022-10-11T08:33:28.642Z,3.45
2022-10-11T08:36:26.914Z,3.58
2022-10-11T08:39:25.790Z,6.38
2022-10-11T08:42:30.534Z,4.50
2022-10-11T08:45:34.265Z,4.22
2022-10-11T08:48:40.062Z,4.53
2022-10-11T08:51:37.484Z,3.28
2022-10-11T08:54:20.856Z,6.18
2022-10-11T08:57:16.535Z,4.15
2022-10-11T09:00:16.432Z,5.53
2022-10-11T09:03:08.656Z,6.10
2022-10-11T09:05:53.786Z,3.42
2022-10-11T09:08:38.161Z,3.38
2022-10-11T09:11:24.667Z,3.78
2022-10-11T09:14:15.055Z,6.07
2022-10-11T09:17:03.389Z,5.22
2022-10-11T09:20:01.036Z,3.25
2022-10-11T09:22:48.690Z,3.95
2022-10-11T09:25:23.819Z,3.35
2022-10-11T09:28:02.700Z,5.45
2022-10-11T09:30:35.294Z,4.95
2022-10-11T09:33:11.101Z,3.88
2022-10-11T09:35:42.176Z,2.95
2022-10-11T09:38:14.861Z,6.43
2022-10-11T09:40:47.967Z,3.88
2022-10-11T09:43:16.536Z,2.28
2022-10-11T09:45:49.423Z,4.72
2022-10-11T09:48:20.240Z,3.50
2022-10-11T09:50:49.673Z,3.50
2022-10-11T09:53:21.882Z,4.07
2022-10-11T09:55:54.176Z,2.10
2022-10-11T09:58:30.634Z,2.35
2022-10-11T10:01:06.585Z,2.85
2022-10-11T10:03:37.060Z,2.85
2022-10-11T10:06:10.383Z,4.35
2022-10-11T10:08:40.407Z,4.07
2022-10-11T10:11:10.140Z,1.95
2022-10-11T10:13:42.652Z,2.28
2022-10-11T10:16:21.428Z,2.50
2022-10-11T10:18:52.036Z,3.53
2022-10-11T10:21:26.700Z,3.72
2022-10-11T10:23:57.811Z,2.65
2022-10-11T10:26:27.554Z,4.20
2022-10-11T10:29:01.959Z,3.60
2022-10-11T10:32:01.584Z,2.53
2022-10-11T10:34:29.025Z,3.95
2022-10-11T10:36:59.085Z,1.95
2022-10-11T10:39:31.503Z,2.40
2022-10-11T10:42:01.389Z,2.45
2022-10-11T10:44:30.022Z,2.42
2022-10-11T10:47:04.289Z,1.35
2022-10-11T10:49:53.234Z,0.98
2022-10-11T10:52:44.138Z,2.22
2022-10-11T10:55:20.560Z,2.38
2022-10-11T10:57:54.753Z,1.42
2022-10-11T11:00:24.209Z,1.00
2022-10-11T11:02:56.579Z,3.03
2022-10-11T11:05:34.934Z,2.65
2022-10-11T11:08:06.895Z,1.70
2022-10-11T11:10:38.590Z,1.10
2022-10-11T11:13:17.329Z,3.60
2022-10-11T11:15:50.616Z,1.20
2022-10-11T11:18:27.018Z,1.23
2022-10-11T11:21:09.914Z,2.83
2022-10-11T11:23:42.378Z,4.18
2022-10-11T11:26:15.477Z,3.70
2022-10-11T11:28:50.706Z,2.42
2022-10-11T11:31:26.711Z,1.85
2022-10-11T11:34:00.528Z,1.38
2022-10-11T11:36:34.567Z,1.45
2022-10-11T11:39:04.672Z,1.35
2022-10-11T11:41:37.583Z,1.00
2022-10-11T11:44:08.784Z,1.85
2022-10-11T11:46:40.708Z,1.95
2022-10-11T11:49:14.200Z,0.75
2022-10-11T11:51:45.165Z,1.13
2022-10-11T11:54:20.310Z,0.60
2022-10-11T11:56:53.696Z,1.80
2022-10-11T11:59:26.138Z,1.27
2022-10-11T12:01:59.807Z,1.55
2022-10-11T12:04:30.254Z,1.17
2022-10-11T12:07:15.987Z,2.17
2022-10-11T12:09:46.482Z,0.98
2022-10-11T12:12:29.357Z,3.08
2022-10-11T12:15:04.803Z,2.00
2022-10-11T12:17:33.684Z,1.33
2022-10-11T12:20:12.196Z,1.58
2022-10-11T12:22:42.786Z,1.23
2022-10-11T12:25:35.231Z,1.50
2022-10-11T12:28:25.210Z,1.50
2022-10-11T12:30:54.574Z,3.25
2022-10-11T12:33:24.058Z,3.60
2022-10-11T12:36:04.060Z,2.17
2022-10-11T12:38:37.776Z,1.42
2022-10-11T12:41:21.202Z,2.00
2022-10-11T12:44:15.301Z,1.98
2022-10-11T12:46:45.395Z,2.92
2022-10-11T12:49:33.485Z,1.15
2022-10-11T12:52:03.033Z,1.35
2022-10-11T12:54:47.225Z,0.77
2022-10-11T12:57:29.998Z,1.55
2022-10-11T13:00:09.258Z,0.65
2022-10-11T13:02:40.099Z,0.65
2022-10-11T13:05:10.088Z,1.08
2022-10-11T13:07:38.686Z,1.15
2022-10-11T13:10:07.709Z,2.22
2022-10-11T13:12:39.504Z,2.15
2022-10-11T13:15:14.464Z,1.65
2022-10-11T13:17:43.721Z,1.23
2022-10-11T13:20:19.068Z,1.10
2022-10-11T13:22:49.381Z,2.67
2022-10-11T13:25:19.165Z,1.58
2022-10-11T13:27:48.287Z,1.42
2022-10-11T13:30:21.052Z,0.95
2022-10-11T13:32:49.684Z,1.35
2022-10-11T13:35:23.780Z,2.67
2022-10-11T13:37:53.596Z,0.55
2022-10-11T13:40:23.010Z,0.77
2022-10-11T13:42:52.380Z,0.60
2022-10-11T13:45:23.450Z,0.73
2022-10-11T13:47:52.712Z,0.50
2022-10-11T13:50:24.073Z,0.82
2022-10-11T13:52:55.669Z,0.50
2022-10-11T13:55:25.744Z,1.38
2022-10-11T13:57:54.782Z,1.38
2022-10-11T14:00:26.925Z,0.60
2022-10-11T14:02:57.407Z,1.33
2022-10-11T14:05:29.420Z,0.50
2022-10-11T14:07:58.304Z,1.70
2022-10-11T14:10:27.210Z,0.95
2022-10-11T14:13:07.382Z,0.40
2022-10-11T14:15:38.094Z,0.95
2022-10-11T14:18:21.605Z,0.50
2022-10-11T14:20:50.228Z,1.00
2022-10-11T14:23:18.824Z,1.50
2022-10-11T14:25:47.382Z,2.28
2022-10-11T14:28:16.420Z,1.15
2022-10-11T14:30:46.451Z,0.85
2022-10-11T14:33:15.014Z,1.40
2022-10-11T14:35:43.618Z,1.08
2022-10-11T14:38:13.022Z,0.50
2022-10-11T14:40:41.669Z,3.60
2022-10-11T14:43:10.236Z,0.50
2022-10-11T14:45:38.883Z,0.82
2022-10-11T14:48:08.921Z,0.95
2022-10-11T14:50:40.451Z,0.40
2022-10-11T14:53:09.538Z,2.53
2022-10-11T14:55:38.596Z,1.92
2022-10-11T14:58:07.549Z,1.88
2022-10-11T15:00:37.036Z,1.38
2022-10-11T15:03:07.202Z,0.93
2022-10-11T15:05:37.964Z,0.75
2022-10-11T15:08:07.365Z,0.63
2022-10-11T15:10:37.482Z,5.03
2022-10-11T15:13:07.070Z,1.33
2022-10-11T15:15:36.904Z,1.10
2022-10-11T15:18:06.626Z,0.80
2022-10-11T15:20:37.141Z,0.60
2022-10-11T15:23:07.826Z,2.90
2022-10-11T15:25:36.392Z,1.02
2022-10-11T15:28:05.741Z,1.02
2022-10-11T15:30:40.116Z,0.52
2022-10-11T15:33:10.390Z,1.08
2022-10-11T15:35:38.957Z,2.40
2022-10-11T15:38:16.560Z,1.73
2022-10-11T15:40:45.354Z,0.88
2022-10-11T15:43:14.147Z,1.45
2022-10-11T15:45:42.940Z,0.98
2022-10-11T15:48:13.485Z,0.80
2022-10-11T15:50:42.124Z,0.80
2022-10-11T15:53:13.736Z,0.68
2022-10-11T15:55:43.448Z,0.90
2022-10-11T15:58:14.597Z,1.52
2022-10-11T16:00:43.257Z,1.10
2022-10-11T16:03:12.634Z,1.52
2022-10-11T16:05:41.619Z,0.60
2022-10-11T16:08:10.343Z,0.90
2022-10-11T16:10:41.184Z,1.63
2022-10-11T16:13:10.309Z,2.10
2022-10-11T16:15:42.976Z,0.63
2022-10-11T16:18:12.596Z,0.68
2022-10-11T16:20:41.869Z,1.75
2022-10-11T16:23:10.964Z,0.90
2022-10-11T16:25:41.254Z,2.33
2022-10-11T16:28:10.354Z,3.35
2022-10-11T16:30:40.254Z,1.48
2022-10-11T16:33:08.827Z,1.60
2022-10-11T16:35:37.435Z,1.70
2022-10-11T16:38:05.991Z,1.25
2022-10-11T16:40:36.013Z,2.90
2022-10-11T16:43:07.850Z,0.95
2022-10-11T16:45:36.912Z,2.83
2022-10-11T16:48:06.007Z,0.80
2022-10-11T16:50:39.326Z,3.88
2022-10-11T16:53:08.409Z,3.10
2022-10-11T16:55:36.990Z,1.58
2022-10-11T16:58:07.713Z,2.47
2022-10-11T17:00:36.403Z,1.70
2022-10-11T17:03:04.993Z,1.33
2022-10-11T17:05:33.537Z,1.23
2022-10-11T17:08:02.091Z,1.02
2022-10-11T17:10:39.437Z,0.90
2022-10-11T17:13:09.636Z,1.52
2022-10-11T17:15:39.750Z,2.15
2022-10-11T17:18:08.496Z,1.13
2022-10-11T17:20:37.049Z,2.28
2022-10-11T17:23:05.958Z,1.05
2022-10-11T17:25:34.624Z,0.75
2022-10-11T17:28:03.353Z,1.00
2022-10-11T17:30:33.268Z,2.63
2022-10-11T17:33:02.049Z,0.70
2022-10-11T17:35:32.424Z,0.70
2022-10-11T17:38:05.779Z,1.52
2022-10-11T17:40:35.029Z,1.52
2022-10-11T17:43:04.148Z,0.93
2022-10-11T17:45:34.084Z,0.73
2022-10-11T17:48:04.086Z,1.33
2022-10-11T17:50:33.519Z,1.75
2022-10-11T17:53:02.618Z,1.75
2022-10-11T17:55:31.241Z,3.10
2022-10-11T17:57:59.841Z,3.40
2022-10-11T18:00:28.437Z,1.08
2022-10-11T18:02:58.569Z,0.63
2022-10-11T18:05:27.247Z,0.52
2022-10-11T18:07:56.155Z,1.00
2022-10-11T18:10:24.791Z,2.17
2022-10-11T18:12:54.196Z,1.63
2022-10-11T18:15:22.772Z,1.33
2022-10-11T18:17:51.364Z,1.70
2022-10-11T18:20:21.305Z,1.17
2022-10-11T18:22:51.008Z,4.35
2022-10-11T18:25:19.602Z,1.55
2022-10-11T18:27:48.172Z,1.25
2022-10-11T18:30:16.930Z,2.03
2022-10-11T18:32:45.569Z,0.80
2022-10-11T18:35:14.680Z,1.98
2022-10-11T18:37:44.610Z,2.45
2022-10-11T18:40:13.301Z,1.17
2022-10-11T18:42:41.936Z,2.42
2022-10-11T18:45:11.405Z,1.63
2022-10-11T18:47:39.973Z,1.08
2022-10-11T18:50:09.667Z,1.80
2022-10-11T18:52:41.255Z,0.95
2022-10-11T18:55:14.473Z,1.52
2022-10-11T18:57:43.472Z,1.95
2022-10-11T19:00:37.768Z,1.25
2022-10-11T19:03:01.537Z,0.93
2022-10-11T19:05:30.160Z,0.95
2022-10-11T19:07:58.704Z,1.02
2022-10-11T19:10:28.653Z,2.65
2022-10-11T19:12:57.274Z,0.85
2022-10-11T19:15:28.712Z,2.65
2022-10-11T19:17:57.715Z,1.48
2022-10-11T19:20:26.257Z,1.20
2022-10-11T19:22:54.897Z,0.75
2022-10-11T19:25:24.354Z,2.28
2022-10-11T19:27:54.335Z,0.85
2022-10-11T19:30:24.681Z,0.70
2022-10-11T19:32:53.270Z,0.80
2022-10-11T19:35:21.829Z,1.70
2022-10-11T19:37:50.363Z,1.63
2022-10-11T19:40:19.074Z,5.90
2022-10-11T19:42:47.741Z,1.20
2022-10-11T19:45:18.006Z,2.90
2022-10-11T19:47:46.591Z,1.95
2022-10-11T19:50:15.233Z,0.95
2022-10-11T19:52:45.004Z,1.13
2022-10-11T19:55:13.716Z,1.05
2022-10-11T19:57:42.450Z,3.30
2022-10-11T20:00:11.657Z,2.20
2022-10-11T20:02:41.744Z,1.58
2022-10-11T20:05:10.525Z,1.25
2022-10-11T20:07:39.089Z,1.98
2022-10-11T20:10:07.820Z,1.23
2022-10-11T20:12:36.429Z,4.10
2022-10-11T20:15:05.197Z,2.00
2022-10-11T20:17:47.619Z,3.05
2022-10-11T20:20:18.272Z,2.08
2022-10-11T20:22:46.846Z,1.55
2022-10-11T20:25:15.417Z,3.22
2022-10-11T20:27:44.035Z,2.15
2022-10-11T20:30:14.018Z,0.80
2022-10-11T20:32:42.721Z,1.27
2022-10-11T20:35:11.385Z,1.45
2022-10-11T20:37:41.315Z,1.30
2022-10-11T20:40:10.545Z,1.17
2022-10-11T20:42:39.441Z,2.75
2022-10-11T20:45:08.522Z,2.15
2022-10-11T20:47:37.076Z,1.75
2022-10-11T20:50:06.012Z,2.10
2022-10-11T20:52:35.133Z,5.65
2022-10-11T20:55:06.704Z,2.03
2022-10-11T20:57:35.669Z,1.77
2022-10-11T21:00:04.425Z,2.03
2022-10-11T21:02:33.101Z,2.55
2022-10-11T21:05:02.005Z,1.90
2022-10-11T21:07:31.222Z,1.60
2022-10-11T21:10:00.025Z,2.47
2022-10-11T21:12:30.023Z,1.13
2022-10-11T21:14:58.628Z,2.45
2022-10-11T21:17:27.304Z,1.15
2022-10-11T21:19:55.868Z,1.92
2022-10-11T21:22:24.458Z,1.10
2022-10-11T21:24:53.139Z,0.85
2022-10-11T21:27:21.733Z,1.52
2022-10-11T21:29:51.796Z,1.38
2022-10-11T21:32:20.673Z,1.50
2022-10-11T21:34:49.244Z,2.67
2022-10-11T21:37:17.964Z,0.85
2022-10-11T21:39:46.577Z,1.25
2022-10-11T21:42:15.151Z,1.42
2022-10-11T21:44:44.629Z,1.45
2022-10-11T21:47:14.877Z,0.70
2022-10-11T21:49:43.442Z,1.17
2022-10-11T21:52:12.064Z,1.35
2022-10-11T21:54:40.764Z,4.70
2022-10-11T21:57:09.404Z,1.50
2022-10-11T21:59:37.962Z,1.70
2022-10-11T22:02:06.577Z,2.13
2022-10-11T22:04:36.551Z,0.70
2022-10-11T22:07:05.145Z,1.90
2022-10-11T22:09:34.991Z,0.80
2022-10-11T22:12:03.721Z,2.42
2022-10-11T22:14:32.368Z,0.82
2022-10-11T22:17:00.996Z,0.98
2022-10-11T22:19:29.556Z,2.47
2022-10-11T22:21:59.574Z,0.80
2022-10-11T22:24:29.796Z,0.77
2022-10-11T22:26:58.338Z,1.40
2022-10-11T22:29:28.537Z,2.72
2022-10-11T22:32:00.397Z,1.27
2022-10-11T22:34:31.837Z,1.23
2022-10-11T22:37:01.796Z,1.92
2022-10-11T22:39:31.305Z,0.93
2022-10-11T22:41:59.896Z,1.58
2022-10-11T22:44:28.449Z,1.20
2022-10-11T22:46:57.006Z,0.80
2022-10-11T22:49:25.916Z,1.25
2022-10-11T22:51:54.453Z,2.25
2022-10-11T22:54:24.388Z,1.63
2022-10-11T22:56:53.064Z,1.17
2022-10-11T22:59:21.617Z,0.73
2022-10-11T23:01:50.189Z,1.30
2022-10-11T23:04:19.300Z,1.83
2022-10-11T23:06:47.878Z,1.80
2022-10-11T23:09:16.432Z,1.48
2022-10-11T23:11:46.351Z,1.38
2022-10-11T23:14:15.057Z,3.45
2022-10-11T23:16:43.588Z,3.38
2022-10-11T23:19:12.130Z,1.30
2022-10-11T23:21:40.720Z,2.20
2022-10-11T23:24:09.553Z,2.33
2022-10-11T23:26:38.313Z,1.50
2022-10-11T23:29:08.277Z,1.35
2022-10-11T23:31:36.923Z,1.38
2022-10-11T23:34:05.469Z,1.13
2022-10-11T23:36:34.093Z,1.48
2022-10-11T23:39:02.695Z,0.80
2022-10-11T23:41:31.537Z,1.10
2022-10-11T23:44:00.181Z,1.00
2022-10-11T23:46:30.084Z,1.60
2022-10-11T23:48:58.651Z,2.05
2022-10-11T23:51:27.313Z,2.83
2022-10-11T23:53:55.966Z,2.00
2022-10-11T23:56:24.816Z,0.80
2022-10-11T23:58:53.427Z,1.02
